EUFO2: Eufaula Lake

Data processed at Thu Feb 15 2018 23:09


All information presented herein is the property of the government of the United States of America and may be revised or deleted at any time without prior notice.
Dissemination of this information without the expressed written consent of the Public Affairs Office, Tulsa District U.S. Army Corps of Engineers is strictly prohibited.
These data are gathered electronically and, as presented, have not undergone any form of quality control. These data are not guaranteed to be valid or correct.
Go to home page.
Go to station list.

Upstream stations:

Downstream station:
Previous Day
Next Day
Current Day
    
SHEF ID:       EUFO2     Eufaula Lake
STATION TYPE:  RESERVOIR
Normal Pool:  Bottom =   565.00, Top =   585.00

               PRECIP ELEVATION   STORAGE   TW-ELEV    INFLOW   RELEASE  AIR-TEMP  WIND-DIRWIND-SPEED REL-HUMID SOLAR-RAD   VOLTAGE  BAT-LOAD
                   in        ft     ac-ft        ft       cfs       cfs         F       deg       mph         %      W/m2      volt      volt
              Ccp-Rev   Ccp-Rev   Ccp-Rev   Ccp-Rev  Regi-Rev  Regi-Rev   Ccp-Rev   Ccp-Rev   Ccp-Rev   Ccp-Rev   Ccp-Rev   Ccp-Rev   Ccp-Rev
(US/Central)
02/13 00:00      0.00    580.78   1823961    482.59       890         0     36.93    118.00      6.06     49.45      0.00     13.72     13.53
02/13 01:00      0.00    580.78   1823961    482.58       890         0     35.71    129.70      4.54     51.77      0.00     13.72     13.53
02/13 02:00      ----    580.78   1823961    482.57       896         0     34.74    128.00      4.28     53.18      0.00      ----      ----
02/13 03:00      0.00    580.81   1826401    482.57       902         0     33.96    121.80      4.33     55.37      0.00     13.72     13.53
02/13 04:00      0.00    580.80   1825588    482.57       907         0     33.73    110.40      2.97     56.23      0.00     13.72     13.53
02/13 05:00      0.00    580.78   1823961    483.02        17       230     31.98    117.00      2.77     64.29      0.00     13.72     13.53
02/13 06:00      0.00    580.78   1823961    485.54        17      4307     33.85    105.40      5.40     64.47      0.00     13.72     13.53
02/13 07:00      0.00    580.75   1821522    488.05        11     12585     33.85    107.40      4.13     65.69      0.00     13.72     13.53
02/13 08:00      0.00    580.73   1819896    488.84      4792     12750     34.63    113.30      4.62     66.06      9.00     13.72     13.53
02/13 09:00      0.00    580.74   1820709    489.04      4787     12750     35.49    111.70      5.32     65.20     51.00     13.72     13.53
02/13 10:00      0.00    580.76   1822335    487.47      4787      4681     36.93    109.30      5.28     62.70    159.00     13.71     13.53
02/13 11:00      0.00    580.76   1822335    486.06      4787         0     40.33    107.40      6.47     58.30    323.00     13.72     13.53
02/13 12:00      0.00    580.77   1823148    485.15      4787         0     45.50    120.60      6.01     53.79    649.00     13.72     13.53
02/13 13:00      0.00    580.78   1823961    484.52         0         0     49.89    123.80      4.11     50.67    542.00     13.72     13.53
02/13 14:00      0.00    580.76   1822335    484.05         0         0     51.76    116.80      3.81     50.37    436.00     13.73     13.53
02/13 15:00      0.00    580.75   1821522    483.69       291         0     52.97    101.70      4.07     50.86    140.00     13.73     13.53
02/13 16:00      0.00    580.75   1821522    483.42       437         0     53.31    109.20      4.69     53.24    118.00     13.73     13.36
02/13 17:00      0.00    580.76   1822335    483.19       437         0     52.41    119.40      4.09     52.69     46.00     13.73     13.36
02/13 18:00      0.00    580.75   1821522    483.02       437         0     50.22    112.40      4.30     54.33     15.00     13.73     13.53
02/13 19:00      0.00    580.76   1822335    482.89       437         0     48.79    112.70      4.46     56.23      0.00     13.73     13.53
02/13 20:00      0.00    580.78   1823961    482.78       146         0     47.70    133.40      3.78     58.07      0.00     13.74     13.53
02/13 21:00      0.00    580.76   1822335    482.71         0         0     47.35    110.50      3.60     60.01      0.00     13.74     13.53
02/13 22:00      0.00    580.76   1822335    482.66         0         0     46.92    107.40      4.50     62.33      0.00     13.74     13.53
02/13 23:00      0.00    580.76   1822335    482.63         0         0     46.60    118.80      2.81     67.16      0.00     13.74     13.53